createdAt,value
2022-12-14T00:00:35.129Z,11.45
2022-12-14T00:03:03.680Z,16.15
2022-12-14T00:05:32.175Z,10.48
2022-12-14T00:08:01.912Z,9.50
2022-12-14T00:10:30.263Z,10.57
2022-12-14T00:12:59.256Z,10.95
2022-12-14T00:15:27.974Z,16.20
2022-12-14T00:17:56.510Z,17.55
2022-12-14T00:20:24.884Z,10.52
2022-12-14T00:22:53.228Z,14.02
2022-12-14T00:25:23.162Z,26.02
2022-12-14T00:27:52.189Z,22.02
2022-12-14T00:30:21.840Z,27.25
2022-12-14T00:32:50.120Z,14.65
2022-12-14T00:35:19.361Z,21.15
2022-12-14T00:37:49.014Z,20.33
2022-12-14T00:40:17.488Z,30.13
2022-12-14T00:42:47.149Z,28.98
2022-12-14T00:45:15.524Z,29.77
2022-12-14T00:47:43.965Z,25.10
2022-12-14T00:50:12.162Z,25.55
2022-12-14T00:52:40.597Z,26.05
2022-12-14T00:55:09.898Z,24.90
2022-12-14T00:57:38.111Z,27.48
2022-12-14T01:00:10.670Z,26.70
2022-12-14T01:02:42.032Z,29.55
2022-12-14T01:05:10.909Z,29.13
2022-12-14T01:07:39.169Z,27.23
2022-12-14T01:10:08.616Z,27.48
2022-12-14T01:12:36.890Z,26.35
2022-12-14T01:15:05.724Z,27.65
2022-12-14T01:17:35.520Z,26.23
2022-12-14T01:20:04.515Z,28.65
2022-12-14T01:22:32.896Z,25.67
2022-12-14T01:25:01.218Z,26.63
2022-12-14T01:27:29.629Z,28.88
2022-12-14T01:29:57.902Z,27.67
2022-12-14T01:32:26.228Z,28.85
2022-12-14T01:34:56.008Z,32.20
2022-12-14T01:37:24.416Z,29.55
2022-12-14T01:39:52.994Z,26.67
2022-12-14T01:42:21.516Z,28.75
2022-12-14T01:44:59.071Z,27.67
2022-12-14T01:47:31.769Z,27.90
2022-12-14T01:50:07.846Z,28.58
2022-12-14T01:52:41.007Z,28.38
2022-12-14T01:55:12.465Z,26.27
2022-12-14T01:57:43.712Z,26.95
2022-12-14T02:00:14.307Z,20.55
2022-12-14T02:02:47.365Z,26.88
2022-12-14T02:05:19.852Z,22.17
2022-12-14T02:07:50.609Z,25.83
2022-12-14T02:10:19.474Z,26.20
2022-12-14T02:12:52.227Z,29.20
2022-12-14T02:15:20.801Z,27.05
2022-12-14T02:17:50.219Z,30.35
2022-12-14T02:20:21.564Z,28.73
2022-12-14T02:23:18.885Z,27.30
2022-12-14T02:26:14.085Z,25.80
2022-12-14T02:29:33.236Z,26.05
2022-12-14T02:32:12.064Z,26.67
2022-12-14T02:34:53.075Z,27.15
2022-12-14T02:37:31.042Z,28.58
2022-12-14T02:40:07.613Z,26.20
2022-12-14T02:42:43.263Z,26.35
2022-12-14T02:45:18.100Z,27.13
2022-12-14T02:47:54.701Z,23.23
2022-12-14T02:50:27.338Z,24.05
2022-12-14T02:53:05.583Z,26.52
2022-12-14T02:55:38.850Z,27.58
2022-12-14T02:58:13.366Z,24.92
2022-12-14T03:00:44.256Z,22.90
2022-12-14T03:03:12.569Z,26.08
2022-12-14T03:05:40.869Z,25.80
2022-12-14T03:08:13.321Z,23.77
2022-12-14T03:10:47.951Z,26.02
2022-12-14T03:13:23.320Z,25.02
2022-12-14T03:15:59.395Z,25.15
2022-12-14T03:18:32.758Z,27.35
2022-12-14T03:21:03.173Z,28.23
2022-12-14T03:23:36.099Z,27.08
2022-12-14T03:26:10.925Z,27.33
2022-12-14T03:28:45.720Z,26.15
2022-12-14T03:31:19.567Z,25.40
2022-12-14T03:33:51.398Z,23.65
2022-12-14T03:36:26.711Z,22.33
2022-12-14T03:38:58.668Z,24.50
2022-12-14T03:41:32.982Z,22.58
2022-12-14T03:44:16.740Z,24.38
2022-12-14T03:46:57.018Z,24.77
2022-12-14T03:49:40.718Z,26.05
2022-12-14T03:52:15.304Z,24.70
2022-12-14T03:54:53.285Z,28.05
2022-12-14T03:57:33.734Z,25.27
2022-12-14T04:00:07.187Z,24.63
2022-12-14T04:02:47.101Z,27.52
2022-12-14T04:05:20.880Z,29.83
2022-12-14T04:07:56.847Z,25.05
2022-12-14T04:10:48.043Z,25.13
2022-12-14T04:13:37.855Z,25.50
2022-12-14T04:16:28.640Z,28.45
2022-12-14T04:19:01.891Z,24.23
2022-12-14T04:21:40.409Z,25.73
2022-12-14T04:24:32.705Z,18.20
2022-12-14T04:27:05.455Z,16.50
2022-12-14T04:29:53.585Z,24.35
2022-12-14T04:32:25.269Z,26.50
2022-12-14T04:34:58.964Z,24.45
2022-12-14T04:37:29.308Z,24.20
2022-12-14T04:40:03.916Z,26.25
2022-12-14T04:42:35.884Z,27.65
2022-12-14T04:45:09.049Z,26.15
2022-12-14T04:47:44.407Z,22.33
2022-12-14T04:50:22.226Z,19.55
2022-12-14T04:52:55.801Z,24.10
2022-12-14T04:55:29.403Z,22.50
2022-12-14T04:58:01.569Z,25.00
2022-12-14T05:00:33.577Z,24.15
2022-12-14T05:03:21.049Z,22.25
2022-12-14T05:06:06.492Z,22.27
2022-12-14T05:08:52.403Z,24.33
2022-12-14T05:14:22.283Z,24.23
2022-12-14T05:16:51.283Z,24.17
2022-12-14T05:19:19.566Z,21.85
2022-12-14T05:21:49.220Z,23.08
2022-12-14T05:24:18.192Z,23.13
2022-12-14T05:26:46.556Z,20.98
2022-12-14T05:29:15.179Z,25.65
2022-12-14T05:31:49.086Z,25.58
2022-12-14T05:34:18.014Z,25.30
2022-12-14T05:36:49.127Z,23.40
2022-12-14T05:39:17.925Z,26.73
2022-12-14T05:41:46.198Z,26.75
2022-12-14T05:44:14.472Z,26.05
2022-12-14T05:46:42.718Z,26.23
2022-12-14T05:49:11.078Z,30.13
2022-12-14T05:51:39.590Z,30.40
2022-12-14T05:54:09.207Z,29.63
2022-12-14T05:56:37.469Z,33.05
2022-12-14T05:59:05.756Z,33.30
2022-12-14T06:01:34.174Z,31.60
2022-12-14T06:04:02.664Z,30.70
2022-12-14T06:06:30.923Z,31.50
2022-12-14T06:08:59.639Z,27.55
2022-12-14T06:11:29.445Z,30.58
2022-12-14T06:13:57.705Z,30.05
2022-12-14T06:16:28.043Z,33.47
2022-12-14T06:18:57.944Z,29.42
2022-12-14T06:21:30.140Z,26.30
2022-12-14T06:23:59.223Z,24.83
2022-12-14T06:26:30.546Z,25.25
2022-12-14T06:28:59.681Z,25.20
2022-12-14T06:31:29.559Z,23.20
2022-12-14T06:34:01.965Z,26.60
2022-12-14T06:36:32.389Z,23.13
2022-12-14T06:39:03.903Z,18.25
2022-12-14T06:41:33.677Z,28.10
2022-12-14T06:44:06.961Z,25.23
2022-12-14T06:46:36.316Z,23.70
2022-12-14T06:49:06.692Z,21.95
2022-12-14T06:51:40.557Z,23.02
2022-12-14T06:54:11.640Z,20.15
2022-12-14T06:56:42.154Z,24.00
2022-12-14T06:59:11.323Z,24.85
2022-12-14T07:01:41.374Z,23.73
2022-12-14T07:04:10.723Z,25.45
2022-12-14T07:06:40.952Z,24.10
2022-12-14T07:09:13.169Z,25.30
2022-12-14T07:11:42.781Z,24.52
2022-12-14T07:14:15.904Z,23.30
2022-12-14T07:16:48.648Z,23.30
2022-12-14T07:19:17.850Z,24.17
2022-12-14T07:21:46.177Z,24.77
2022-12-14T07:24:14.399Z,22.83
2022-12-14T07:26:44.272Z,24.35
2022-12-14T07:29:14.714Z,28.08
2022-12-14T07:31:42.989Z,25.98
2022-12-14T07:34:14.026Z,28.88
2022-12-14T07:36:43.332Z,27.17
2022-12-14T07:39:14.577Z,28.52
2022-12-14T07:41:44.707Z,30.13
2022-12-14T07:44:13.051Z,26.10
2022-12-14T07:46:42.338Z,26.23
2022-12-14T07:49:10.918Z,29.85
2022-12-14T07:51:42.129Z,20.55
2022-12-14T07:54:12.186Z,23.23
2022-12-14T07:56:41.757Z,23.70
2022-12-14T07:59:15.205Z,25.73
2022-12-14T08:01:44.580Z,24.02
2022-12-14T08:04:15.552Z,26.67
2022-12-14T08:06:44.582Z,29.42
2022-12-14T08:09:13.212Z,25.10
2022-12-14T08:11:41.778Z,30.52
2022-12-14T08:14:17.554Z,30.77
2022-12-14T08:16:46.406Z,23.58
2022-12-14T08:19:15.168Z,29.92
2022-12-14T08:21:45.508Z,27.42
2022-12-14T08:24:15.051Z,28.40
2022-12-14T08:26:47.186Z,23.50
2022-12-14T08:29:19.348Z,26.70
2022-12-14T08:31:47.788Z,23.25
2022-12-14T08:34:22.124Z,28.40
2022-12-14T08:36:50.787Z,28.80
2022-12-14T08:39:19.108Z,29.85
2022-12-14T08:41:47.481Z,27.23
2022-12-14T08:44:17.190Z,23.77
2022-12-14T08:46:47.066Z,25.33
2022-12-14T08:49:15.419Z,20.25
2022-12-14T08:51:43.673Z,27.13
2022-12-14T08:54:12.878Z,28.45
2022-12-14T08:56:41.222Z,28.35
2022-12-14T08:59:19.624Z,23.23
2022-12-14T09:01:59.289Z,10.50
2022-12-14T09:04:27.946Z,22.17
2022-12-14T09:06:56.481Z,27.15
2022-12-14T09:09:24.827Z,23.80
2022-12-14T09:11:53.061Z,19.42
2022-12-14T09:14:21.471Z,23.70
2022-12-14T09:16:49.760Z,16.05
2022-12-14T09:19:20.046Z,24.75
2022-12-14T09:21:48.398Z,21.50
2022-12-14T09:24:16.672Z,17.02
2022-12-14T09:26:47.036Z,11.07
2022-12-14T09:29:16.976Z,28.08
2022-12-14T09:31:45.670Z,24.05
2022-12-14T09:34:14.148Z,27.65
2022-12-14T09:36:43.834Z,24.02
2022-12-14T09:39:14.952Z,20.48
2022-12-14T09:42:04.236Z,26.50
2022-12-14T09:44:47.941Z,21.83
2022-12-14T09:47:20.310Z,17.15
2022-12-14T09:49:51.246Z,17.83
2022-12-14T09:52:25.134Z,17.95
2022-12-14T09:54:56.106Z,18.63
2022-12-14T09:57:30.178Z,17.98
2022-12-14T09:59:58.681Z,20.50
2022-12-14T10:02:38.736Z,13.60
2022-12-14T10:05:33.520Z,24.05
2022-12-14T10:08:13.019Z,27.02
2022-12-14T10:10:49.931Z,22.23
2022-12-14T10:13:31.792Z,23.40
2022-12-14T10:16:11.630Z,18.90
2022-12-14T10:19:00.897Z,25.33
2022-12-14T10:21:42.605Z,18.75
2022-12-14T10:24:18.681Z,14.10
2022-12-14T10:26:53.696Z,19.60
2022-12-14T10:29:37.359Z,21.75
2022-12-14T10:32:17.182Z,19.38
2022-12-14T10:34:50.325Z,20.83
2022-12-14T10:37:27.264Z,24.20
2022-12-14T10:40:18.528Z,21.92
2022-12-14T10:43:01.569Z,20.70
2022-12-14T10:45:41.444Z,19.95
2022-12-14T10:48:28.929Z,22.33
2022-12-14T10:51:01.779Z,22.08
2022-12-14T10:53:40.390Z,12.90
2022-12-14T10:56:15.775Z,20.83
2022-12-14T10:58:44.448Z,22.67
2022-12-14T11:01:16.734Z,20.65
2022-12-14T11:03:50.659Z,17.48
2022-12-14T11:06:21.244Z,16.08
2022-12-14T11:08:51.697Z,19.00
2022-12-14T11:11:24.584Z,14.75
2022-12-14T11:13:55.029Z,12.38
2022-12-14T11:16:36.595Z,21.95
2022-12-14T11:19:07.157Z,13.82
2022-12-14T11:21:37.887Z,20.55
2022-12-14T11:24:07.693Z,18.55
2022-12-14T11:26:41.711Z,20.10
2022-12-14T11:29:19.334Z,13.68
2022-12-14T11:31:49.371Z,15.18
2022-12-14T11:34:26.743Z,20.63
2022-12-14T11:36:55.143Z,8.93
2022-12-14T11:39:25.590Z,13.25
2022-12-14T11:42:17.070Z,23.35
2022-12-14T11:44:47.234Z,12.57
2022-12-14T11:47:17.858Z,11.70
2022-12-14T11:49:48.224Z,8.48
2022-12-14T11:52:19.930Z,11.43
2022-12-14T11:55:10.803Z,13.07
2022-12-14T11:57:50.088Z,19.00
2022-12-14T12:00:26.715Z,11.13
2022-12-14T12:03:02.096Z,13.27
2022-12-14T12:05:35.711Z,11.25
2022-12-14T12:08:04.370Z,11.43
2022-12-14T12:10:40.388Z,14.07
2022-12-14T12:13:27.481Z,16.45
2022-12-14T12:15:59.617Z,13.75
2022-12-14T12:18:34.428Z,7.88
2022-12-14T12:21:09.647Z,16.90
2022-12-14T12:23:43.517Z,12.18
2022-12-14T12:26:22.720Z,18.45
2022-12-14T12:29:11.969Z,15.00
2022-12-14T12:31:46.941Z,6.80
2022-12-14T12:34:21.479Z,14.82
2022-12-14T12:37:24.888Z,13.90
2022-12-14T12:39:44.627Z,17.48
2022-12-14T12:42:24.300Z,13.30
2022-12-14T12:45:01.938Z,19.60
2022-12-14T12:47:46.006Z,14.15
2022-12-14T12:50:17.953Z,19.77
2022-12-14T12:53:00.901Z,16.20
2022-12-14T12:55:34.296Z,7.93
2022-12-14T12:58:09.967Z,10.70
2022-12-14T13:00:42.873Z,13.77
2022-12-14T13:03:24.881Z,12.63
2022-12-14T13:05:56.795Z,14.07
2022-12-14T13:08:32.253Z,16.45
2022-12-14T13:13:54.675Z,19.00
2022-12-14T13:16:42.161Z,17.80
2022-12-14T13:19:48.892Z,16.90
2022-12-14T13:22:14.705Z,15.10
2022-12-14T13:24:45.304Z,13.27
2022-12-14T13:27:46.352Z,15.57
2022-12-14T13:30:34.183Z,14.77
2022-12-14T13:33:19.846Z,12.27
2022-12-14T13:36:10.942Z,14.30
2022-12-14T13:39:02.810Z,15.68
2022-12-14T13:41:43.686Z,17.27
2022-12-14T13:44:44.284Z,18.42
2022-12-14T13:47:16.809Z,15.90
2022-12-14T13:50:26.953Z,12.80
2022-12-14T13:52:49.124Z,16.00
2022-12-14T13:55:27.648Z,16.25
2022-12-14T13:58:14.555Z,20.13
2022-12-14T14:01:01.843Z,20.70
2022-12-14T14:04:21.988Z,17.45
2022-12-14T14:06:52.833Z,16.63
2022-12-14T14:10:20.056Z,17.15
2022-12-14T14:12:48.465Z,13.23
2022-12-14T14:15:32.856Z,15.10
2022-12-14T14:18:17.345Z,18.42
2022-12-14T14:20:47.758Z,14.68
2022-12-14T14:23:33.532Z,16.90
2022-12-14T14:26:25.827Z,9.68
2022-12-14T14:29:23.527Z,14.95
2022-12-14T14:32:03.591Z,13.63
2022-12-14T14:34:47.196Z,14.05
2022-12-14T14:37:30.578Z,10.73
2022-12-14T14:40:21.676Z,13.88
2022-12-14T14:43:00.162Z,15.15
2022-12-14T14:45:37.608Z,14.95
2022-12-14T14:48:30.793Z,12.90
2022-12-14T14:51:14.733Z,15.85
2022-12-14T14:53:43.423Z,16.60
2022-12-14T14:56:44.977Z,13.70
2022-12-14T14:59:50.500Z,14.27
2022-12-14T15:02:32.157Z,17.67
2022-12-14T15:07:51.643Z,16.15
2022-12-14T15:10:29.743Z,14.50
2022-12-14T15:13:17.060Z,17.65
2022-12-14T15:15:47.008Z,15.40
2022-12-14T15:18:16.900Z,14.85
2022-12-14T15:20:55.015Z,16.35
2022-12-14T15:23:28.790Z,15.73
2022-12-14T15:26:00.782Z,16.45
2022-12-14T15:28:32.179Z,15.07
2022-12-14T15:31:01.385Z,17.92
2022-12-14T15:33:33.393Z,19.73
2022-12-14T15:36:06.962Z,11.93
2022-12-14T15:38:38.048Z,15.00
2022-12-14T15:41:13.040Z,19.02
2022-12-14T15:43:47.238Z,21.05
2022-12-14T15:46:19.017Z,19.92
2022-12-14T15:48:47.574Z,19.92
2022-12-14T15:51:18.962Z,21.13
2022-12-14T15:53:50.274Z,16.73
2022-12-14T15:56:26.966Z,17.00
2022-12-14T15:59:01.211Z,15.57
2022-12-14T16:01:34.262Z,23.00
2022-12-14T16:04:05.692Z,20.70
2022-12-14T16:06:39.452Z,19.80
2022-12-14T16:09:12.787Z,19.52
2022-12-14T16:11:44.947Z,21.33
2022-12-14T16:14:22.399Z,19.40
2022-12-14T16:16:51.911Z,14.88
2022-12-14T16:19:27.781Z,23.25
2022-12-14T16:22:15.193Z,16.95
2022-12-14T16:25:01.608Z,19.85
2022-12-14T16:27:31.305Z,21.35
2022-12-14T16:30:16.136Z,19.17
2022-12-14T16:32:46.323Z,18.05
2022-12-14T16:35:22.242Z,22.75
2022-12-14T16:37:53.020Z,18.90
2022-12-14T16:40:33.263Z,21.52
2022-12-14T16:43:02.042Z,23.25
2022-12-14T16:46:09.669Z,21.83
2022-12-14T16:48:42.708Z,17.73
2022-12-14T16:51:58.297Z,23.15
2022-12-14T16:54:26.783Z,19.75
2022-12-14T16:56:59.596Z,20.38
2022-12-14T16:59:33.495Z,18.10
2022-12-14T17:02:02.009Z,13.50
2022-12-14T17:04:37.912Z,19.98
2022-12-14T17:07:06.251Z,19.45
2022-12-14T17:09:35.735Z,22.70
2022-12-14T17:12:12.694Z,20.30
2022-12-14T17:14:49.058Z,13.65
2022-12-14T17:17:23.276Z,19.75
2022-12-14T17:19:53.299Z,17.35
2022-12-14T17:22:25.437Z,18.50
2022-12-14T17:24:54.068Z,14.93
2022-12-14T17:27:26.933Z,18.23
2022-12-14T17:29:57.331Z,23.77
2022-12-14T17:32:31.540Z,23.02
2022-12-14T17:35:01.811Z,17.48
2022-12-14T17:37:36.584Z,11.05
2022-12-14T17:40:07.777Z,12.63
2022-12-14T17:42:38.891Z,17.45
2022-12-14T17:45:08.796Z,23.63
2022-12-14T17:47:37.126Z,13.73
2022-12-14T17:50:07.879Z,15.73
2022-12-14T17:52:36.533Z,18.30
2022-12-14T17:55:05.155Z,15.90
2022-12-14T17:57:35.993Z,16.10
2022-12-14T18:00:22.950Z,22.33
2022-12-14T18:02:52.369Z,22.10
2022-12-14T18:05:23.574Z,18.52
2022-12-14T18:07:51.948Z,20.92
2022-12-14T18:10:20.433Z,20.45
2022-12-14T18:12:48.700Z,15.95
2022-12-14T18:15:20.672Z,21.33
2022-12-14T18:17:49.677Z,18.63
2022-12-14T18:20:19.327Z,24.05
2022-12-14T18:22:50.027Z,13.07
2022-12-14T18:25:29.248Z,20.30
2022-12-14T18:27:57.915Z,21.13
2022-12-14T18:30:34.904Z,21.55
2022-12-14T18:33:07.549Z,14.68
2022-12-14T18:35:36.187Z,14.77
2022-12-14T18:38:08.273Z,18.50
2022-12-14T18:40:37.154Z,16.40
2022-12-14T18:43:06.002Z,20.58
2022-12-14T18:45:37.446Z,19.45
2022-12-14T18:48:06.059Z,23.90
2022-12-14T18:50:38.323Z,16.35
2022-12-14T18:53:14.668Z,18.58
2022-12-14T18:55:44.027Z,18.10
2022-12-14T18:58:17.686Z,20.98
2022-12-14T19:00:46.927Z,17.60
2022-12-14T19:03:16.306Z,22.42
2022-12-14T19:05:45.301Z,16.63
2022-12-14T19:08:15.400Z,22.77
2022-12-14T19:10:48.085Z,22.30
2022-12-14T19:13:25.056Z,16.85
2022-12-14T19:15:54.828Z,18.20
2022-12-14T19:18:23.408Z,17.98
2022-12-14T19:20:51.789Z,18.20
2022-12-14T19:23:24.585Z,14.75
2022-12-14T19:25:52.973Z,14.73
2022-12-14T19:28:37.120Z,15.93
2022-12-14T19:31:06.159Z,15.05
2022-12-14T19:33:35.118Z,14.30
2022-12-14T19:36:06.709Z,13.35
2022-12-14T19:38:37.881Z,16.92
2022-12-14T19:41:08.874Z,18.48
2022-12-14T19:43:40.088Z,17.75
2022-12-14T19:46:09.378Z,18.70
2022-12-14T19:48:38.657Z,22.48
2022-12-14T19:51:10.475Z,20.52
2022-12-14T19:53:42.983Z,10.55
2022-12-14T19:56:13.518Z,15.70
2022-12-14T19:58:42.460Z,18.08
2022-12-14T20:01:11.977Z,18.50
2022-12-14T20:03:40.649Z,16.40
2022-12-14T20:06:12.168Z,21.52
2022-12-14T20:08:43.839Z,18.10
2022-12-14T20:11:17.555Z,10.35
2022-12-14T20:13:45.928Z,22.95
2022-12-14T20:16:17.599Z,21.42
2022-12-14T20:18:46.266Z,14.07
2022-12-14T20:21:21.622Z,16.95
2022-12-14T20:23:52.172Z,15.63
2022-12-14T20:26:27.614Z,18.45
2022-12-14T20:28:58.734Z,18.77
2022-12-14T20:31:27.199Z,16.23
2022-12-14T20:33:56.073Z,20.38
2022-12-14T20:36:24.766Z,13.73
2022-12-14T20:38:57.832Z,21.20
2022-12-14T20:41:28.232Z,17.80
2022-12-14T20:43:57.278Z,16.90
2022-12-14T20:46:28.224Z,17.05
2022-12-14T20:48:57.950Z,14.13
2022-12-14T20:51:26.467Z,20.85
2022-12-14T20:53:56.478Z,19.15
2022-12-14T20:56:25.114Z,14.65
2022-12-14T20:58:54.116Z,14.00
2022-12-14T21:01:23.755Z,13.57
2022-12-14T21:03:53.027Z,25.52
2022-12-14T21:06:23.782Z,14.02
2022-12-14T21:09:12.150Z,17.33
2022-12-14T21:12:02.139Z,22.67
2022-12-14T21:14:36.724Z,12.00
2022-12-14T21:17:06.647Z,16.75
2022-12-14T21:19:38.454Z,18.98
2022-12-14T21:22:07.988Z,17.20
2022-12-14T21:25:06.950Z,24.02
2022-12-14T21:27:30.288Z,13.73
2022-12-14T21:30:00.192Z,19.60
2022-12-14T21:32:28.748Z,25.95
2022-12-14T21:34:57.258Z,16.50
2022-12-14T21:37:25.702Z,11.55
2022-12-14T21:39:55.756Z,12.90
2022-12-14T21:42:24.049Z,18.65
2022-12-14T21:44:55.302Z,21.30
2022-12-14T21:47:26.490Z,14.70
2022-12-14T21:49:55.950Z,18.83
2022-12-14T21:52:27.991Z,14.77
2022-12-14T21:54:58.693Z,15.18
2022-12-14T21:57:49.490Z,15.45
2022-12-14T22:00:21.771Z,14.82
2022-12-14T22:02:51.709Z,14.52
2022-12-14T22:05:20.568Z,14.38
2022-12-14T22:07:51.551Z,13.05
2022-12-14T22:10:24.851Z,15.70
2022-12-14T22:12:54.814Z,16.75
2022-12-14T22:15:53.254Z,14.23
2022-12-14T22:18:22.992Z,21.63
2022-12-14T22:20:51.415Z,16.63
2022-12-14T22:23:20.232Z,14.18
2022-12-14T22:25:51.139Z,15.05
2022-12-14T22:28:19.822Z,16.85
2022-12-14T22:30:48.279Z,19.23
2022-12-14T22:33:16.993Z,14.80
2022-12-14T22:35:46.861Z,20.15
2022-12-14T22:38:16.207Z,16.15
2022-12-14T22:40:44.900Z,15.52
2022-12-14T22:43:14.325Z,19.50
2022-12-14T22:45:42.973Z,15.85
2022-12-14T22:48:11.342Z,19.30
2022-12-14T22:50:40.262Z,15.25
2022-12-14T22:53:09.990Z,18.45
2022-12-14T22:55:39.404Z,16.23
2022-12-14T22:58:11.750Z,19.48
2022-12-14T23:00:40.225Z,21.55
2022-12-14T23:03:08.671Z,16.65
2022-12-14T23:05:40.880Z,13.95
2022-12-14T23:08:10.661Z,17.92
2022-12-14T23:10:56.133Z,17.77
2022-12-14T23:13:41.563Z,20.33
2022-12-14T23:16:27.202Z,15.15
2022-12-14T23:19:12.864Z,18.25
2022-12-14T23:22:01.417Z,16.80
2022-12-14T23:24:48.613Z,10.85
2022-12-14T23:27:34.237Z,17.52
2022-12-14T23:30:19.747Z,13.57
2022-12-14T23:33:05.209Z,18.00
2022-12-14T23:35:50.674Z,15.60
2022-12-14T23:38:36.205Z,13.75
2022-12-14T23:41:23.801Z,17.30
2022-12-14T23:44:09.260Z,21.17
2022-12-14T23:46:54.754Z,20.88
2022-12-14T23:49:40.451Z,21.25
2022-12-14T23:52:25.811Z,13.93
2022-12-14T23:55:11.338Z,18.92
2022-12-14T23:57:58.186Z,22.65
